Eagle Virginia — S6HU8 — position and weather

sailwx.info

Track history (hours):
 
Tides and Currents Weather Stations Pressure Air Temp Water Temp Dewpoint Dewpoint Depression Visibility Wind Speed Wind Dir Waves Ship Positions

Eagle Virginia

Last reported at 2017-Nov-20 00:29 UTC. Time now 2017-Nov-21 10:22 UTC.
Position N 47°48' W 005°49'.

Length 333 m; draft 8.5 m.

Type: Tanker. MMSI: 564422000.

Date/timePositionNaut miles runAvg speedWind from/ knotsBaromVisibWave heightAir tempDewpointWater temp
2017-Nov-20 00:29N 47°48' W 005°49'711.0
2017-Nov-19 23:53N 47°52' W 005°41'511.3
2017-Nov-19 23:27N 47°54' W 005°35'511.5
2017-Nov-19 23:00N 47°57' W 005°29'611.6
2017-Nov-19 22:30N 48°01' W 005°22'4 8.2
2017-Nov-19 21:58N 48°03' W 005°17'4 8.5
2017-Nov-19 21:30N 48°06' W 005°12'4 8.2
2017-Nov-19 21:00N 48°08' W 005°07'4 7.6
2017-Nov-19 20:31N 48°09' W 005°01'2 3.2
2017-Nov-19 20:01N 48°10' W 004°60'1 1.5
2017-Nov-19 19:30N 48°11' W 004°60'1 1.7
2017-Nov-19 19:01N 48°12' W 004°59'1 3.0
2017-Nov-19 18:31N 48°13' W 004°58'3 6.7
2017-Nov-19 18:00N 48°15' W 004°54'1 2.6
2017-Nov-19 17:30N 48°16' W 004°52'1 1.3
2017-Nov-19 17:01N 48°16' W 004°52'3 6.7
2017-Nov-19 16:30N 48°17' W 004°47'1 1.2
2017-Nov-19 16:00N 48°17' W 004°46'2 4.5
2017-Nov-19 15:30N 48°18' W 004°43'3 6.9
2017-Nov-19 15:00N 48°19' W 004°38'3 5.7
2017-Nov-19 14:30N 48°21' W 004°34'2 4.3
2017-Nov-19 14:00N 48°21' W 004°31'2 4.8
2017-Nov-19 13:30N 48°22' W 004°28'1 2.2
2017-Nov-19 12:59N 48°23' W 004°27'0 0.0
2017-Nov-19 12:29N 48°23' W 004°27'0 0.0
2017-Nov-19 11:59N 48°23' W 004°27'0 0.0
2017-Nov-19 11:29N 48°23' W 004°27'0 0.0
2017-Nov-19 10:59N 48°23' W 004°27'0 0.0
2017-Nov-19 10:29N 48°23' W 004°27'0 0.0
2017-Nov-19 09:59N 48°23' W 004°27'0 0.0
2017-Nov-19 09:29N 48°23' W 004°27'0 0.0
2017-Nov-19 08:59N 48°23' W 004°27'0 0.0
2017-Nov-19 08:29N 48°23' W 004°27'0 0.0
2017-Nov-19 07:56N 48°23' W 004°27'0 0.0
2017-Nov-19 07:29N 48°23' W 004°27'0 0.0
2017-Nov-19 06:59N 48°23' W 004°27'0 0.0
2017-Nov-19 06:29N 48°23' W 004°27'0 0.0
2017-Nov-19 05:59N 48°23' W 004°27'0 0.0
2017-Nov-19 05:29N 48°23' W 004°27'0 0.0
2017-Nov-19 04:59N 48°23' W 004°27'0 0.0
2017-Nov-19 04:29N 48°23' W 004°27'0 0.0
2017-Nov-19 03:59N 48°23' W 004°27'0 0.0
2017-Nov-19 03:29N 48°23' W 004°27'0 0.0
2017-Nov-19 02:59N 48°23' W 004°27'0 0.0
2017-Nov-19 02:29N 48°23' W 004°27'0 0.0
2017-Nov-19 01:59N 48°23' W 004°27'0 0.0
2017-Nov-19 01:29N 48°23' W 004°27'0 0.0
2017-Nov-19 00:59N 48°23' W 004°27'0 0.0
2017-Nov-19 00:29N 48°23' W 004°27'0 0.0
2017-Nov-18 23:59N 48°23' W 004°27'0 0.0
2017-Nov-18 23:29N 48°23' W 004°27'0 0.0
2017-Nov-18 22:56N 48°23' W 004°27'0 0.0
2017-Nov-18 22:29N 48°23' W 004°27'0 0.0
2017-Nov-18 21:59N 48°23' W 004°27'0 0.0
2017-Nov-18 21:29N 48°23' W 004°27'0 0.0
2017-Nov-18 20:59N 48°23' W 004°27'0 0.0
2017-Nov-18 20:29N 48°23' W 004°27'0 0.0
2017-Nov-18 19:59N 48°23' W 004°27'0 0.0
2017-Nov-18 19:29N 48°23' W 004°27'0 0.0
2017-Nov-18 18:59N 48°23' W 004°27'0 0.0
2017-Nov-18 18:29N 48°23' W 004°27'0 0.0
2017-Nov-18 17:59N 48°23' W 004°27'0 0.0
2017-Nov-18 17:29N 48°23' W 004°27'0 0.0
2017-Nov-18 16:59N 48°23' W 004°27'0 0.0
2017-Nov-18 16:29N 48°23' W 004°27'0 0.0
2017-Nov-18 15:59N 48°23' W 004°27'0 0.0
2017-Nov-18 15:26N 48°23' W 004°27'0 0.0
2017-Nov-18 14:59N 48°23' W 004°27'0 0.0
2017-Nov-18 14:29N 48°23' W 004°27'0 0.0
2017-Nov-18 13:59N 48°23' W 004°27'0 0.0
2017-Nov-18 13:29N 48°23' W 004°27'0 0.0
2017-Nov-18 12:59N 48°23' W 004°27'0 0.0
2017-Nov-18 12:29N 48°23' W 004°27'0 0.0
2017-Nov-18 11:59N 48°23' W 004°27'0 0.0
2017-Nov-18 11:26N 48°23' W 004°27'0 0.0
2017-Nov-18 10:59N 48°23' W 004°27'0 0.0
2017-Nov-18 10:29N 48°23' W 004°27'0 0.0
2017-Nov-18 09:59N 48°23' W 004°27'0 0.0
2017-Nov-18 09:29N 48°23' W 004°27'0 0.0
2017-Nov-18 08:59N 48°23' W 004°27'0 0.0
2017-Nov-18 08:29N 48°23' W 004°27'0 0.0
2017-Nov-18 07:59N 48°23' W 004°27'0 0.0
2017-Nov-18 07:29N 48°23' W 004°27'0 0.0
2017-Nov-18 06:59N 48°23' W 004°27'0 0.0
2017-Nov-18 06:29N 48°23' W 004°27'0 0.0
2017-Nov-18 05:59N 48°23' W 004°27'0 0.0
2017-Nov-18 05:29N 48°23' W 004°27'0 0.0
2017-Nov-18 04:59N 48°23' W 004°27'0 0.0
2017-Nov-18 04:29N 48°23' W 004°27'0 0.0
2017-Nov-18 03:59N 48°23' W 004°27'0 0.0
2017-Nov-18 03:29N 48°23' W 004°27'0 0.0
2017-Nov-18 02:59N 48°23' W 004°27'0 0.0
2017-Nov-18 02:29N 48°23' W 004°27'0 0.0
2017-Nov-18 01:59N 48°23' W 004°27'0 0.0
2017-Nov-18 01:29N 48°23' W 004°27'0 0.0
2017-Nov-18 00:59N 48°23' W 004°27'0 0.0
2017-Nov-18 00:29N 48°23' W 004°27'0 0.0
2017-Nov-17 23:59N 48°23' W 004°27'0 0.0
2017-Nov-17 23:29N 48°23' W 004°27'0 0.0
2017-Nov-17 22:59N 48°23' W 004°27'0 0.0
2017-Nov-17 22:29N 48°23' W 004°27'0 0.0
2017-Nov-17 21:59N 48°23' W 004°27'0 0.0
2017-Nov-17 21:29N 48°23' W 004°27'0 0.0
2017-Nov-17 20:59N 48°23' W 004°27'0 0.0
2017-Nov-17 20:29N 48°23' W 004°27'0 0.0
2017-Nov-17 19:59N 48°23' W 004°27'0 0.0
2017-Nov-17 19:29N 48°23' W 004°27'0 0.0
2017-Nov-17 18:59N 48°23' W 004°27'0 0.0
2017-Nov-17 18:29N 48°23' W 004°27'0 0.0
2017-Nov-17 17:59N 48°23' W 004°27'0 0.0
2017-Nov-17 17:29N 48°23' W 004°27'0 0.0
2017-Nov-17 16:59N 48°23' W 004°27'0 0.0
2017-Nov-17 16:29N 48°23' W 004°27'0 0.0
2017-Nov-17 15:59N 48°23' W 004°27'0 0.0
2017-Nov-17 15:29N 48°23' W 004°27'0 0.0
2017-Nov-17 14:59N 48°23' W 004°27'0 0.0
2017-Nov-17 14:29N 48°23' W 004°27'0 0.0
2017-Nov-17 13:59N 48°23' W 004°27'0 0.0
2017-Nov-17 13:29N 48°23' W 004°27'0 0.0
2017-Nov-17 12:59N 48°23' W 004°27'0 0.0
2017-Nov-17 12:29N 48°23' W 004°27'0 0.0
2017-Nov-17 11:59N 48°23' W 004°27'0 0.0
2017-Nov-17 11:29N 48°23' W 004°27'0 0.0
2017-Nov-17 10:59N 48°23' W 004°27'0 0.0
2017-Nov-17 10:29N 48°23' W 004°27'0 0.0
2017-Nov-17 09:59N 48°23' W 004°27'0 0.0
2017-Nov-17 09:29N 48°23' W 004°27'0 0.0
2017-Nov-17 08:59N 48°23' W 004°27'0 0.0
2017-Nov-17 08:29N 48°23' W 004°27'0 0.0
2017-Nov-17 07:59N 48°23' W 004°27'0 0.0
2017-Nov-17 07:29N 48°23' W 004°27'0 0.0
2017-Nov-17 06:59N 48°23' W 004°27'0 0.0
2017-Nov-17 06:29N 48°23' W 004°27'0 0.0
2017-Nov-17 05:59N 48°23' W 004°27'0 0.0
2017-Nov-17 05:29N 48°23' W 004°27'0 0.0
2017-Nov-17 04:59N 48°23' W 004°27'0 0.0
2017-Nov-17 04:29N 48°23' W 004°27'0 0.0
2017-Nov-17 03:59N 48°23' W 004°27'0 0.0
2017-Nov-17 03:29N 48°23' W 004°27'0 0.0
2017-Nov-17 02:59N 48°23' W 004°27'0 0.0
2017-Nov-17 02:29N 48°23' W 004°27'0 0.0
2017-Nov-17 01:59N 48°23' W 004°27'0 0.0
2017-Nov-17 01:29N 48°23' W 004°27'0 0.0
2017-Nov-17 00:59N 48°23' W 004°27'0 0.0
2017-Nov-17 00:29N 48°23' W 004°27'0 0.0
2017-Nov-16 23:59N 48°23' W 004°27'0 0.0
2017-Nov-16 23:29N 48°23' W 004°27'0 0.0
2017-Nov-16 22:59N 48°23' W 004°27'0 0.0
2017-Nov-16 22:29N 48°23' W 004°27'0 0.0
2017-Nov-16 21:59N 48°23' W 004°27'0 0.0
2017-Nov-16 21:29N 48°23' W 004°27'0 0.0
2017-Nov-16 20:59N 48°23' W 004°27'0 0.0
2017-Nov-16 20:29N 48°23' W 004°27'0 0.0
2017-Nov-16 19:59N 48°23' W 004°27'0 0.0
2017-Nov-16 19:29N 48°23' W 004°27'0 0.0
2017-Nov-16 18:59N 48°23' W 004°27'0 0.0
2017-Nov-16 18:29N 48°23' W 004°27'0 0.0
2017-Nov-16 17:59N 48°23' W 004°27'0 0.0
2017-Nov-16 17:29N 48°23' W 004°27'0 0.0
2017-Nov-16 16:59N 48°23' W 004°27'0 0.0
2017-Nov-16 16:29N 48°23' W 004°27'0 0.0
2017-Nov-16 15:59N 48°23' W 004°27'0 0.0
2017-Nov-16 15:29N 48°23' W 004°27'0 0.0
2017-Nov-16 14:59N 48°23' W 004°27'0 0.0
2017-Nov-16 14:29N 48°23' W 004°27'0 0.0
2017-Nov-16 13:59N 48°23' W 004°27'0 0.0
2017-Nov-16 13:29N 48°23' W 004°27'0 0.0
2017-Nov-16 12:59N 48°23' W 004°27'0 0.0
2017-Nov-16 12:29N 48°23' W 004°27'0 0.0
2017-Nov-16 11:59N 48°23' W 004°27'0 0.0
2017-Nov-16 11:29N 48°23' W 004°27'0 0.0
2017-Nov-16 10:59N 48°23' W 004°27'0 0.0
2017-Nov-16 10:29N 48°23' W 004°27'0 0.0
2017-Nov-16 09:56N 48°23' W 004°27'0 0.0
2017-Nov-16 09:29N 48°23' W 004°27'0 0.0
2017-Nov-16 08:59N 48°23' W 004°27'0 0.0
2017-Nov-16 08:29N 48°23' W 004°27'0 0.0
2017-Nov-16 07:59N 48°23' W 004°27'0 0.0
2017-Nov-16 07:29N 48°23' W 004°27'0 0.0
2017-Nov-16 06:59N 48°23' W 004°27'0 0.0
2017-Nov-16 06:29N 48°23' W 004°27'0 0.0
2017-Nov-16 05:59N 48°23' W 004°27'0 0.0
2017-Nov-16 05:29N 48°23' W 004°27'0 0.0
2017-Nov-16 04:59N 48°23' W 004°27'0 0.0
2017-Nov-16 04:29N 48°23' W 004°27'0 0.0
2017-Nov-16 03:59N 48°23' W 004°27'0 0.0
2017-Nov-16 03:29N 48°23' W 004°27'0 0.0
2017-Nov-16 02:59N 48°23' W 004°27'0 0.0
2017-Nov-16 02:29N 48°23' W 004°27'0 0.0
2017-Nov-16 01:59N 48°23' W 004°27'0 0.0
2017-Nov-16 01:29N 48°23' W 004°27'0 0.0
2017-Nov-16 00:59N 48°23' W 004°27'0 0.0
2017-Nov-16 00:29N 48°23' W 004°27'0 0.0
2017-Nov-15 23:59N 48°23' W 004°27'0 0.0
2017-Nov-15 23:29N 48°23' W 004°27'0 0.0
2017-Nov-15 22:59N 48°23' W 004°27'0 0.0
2017-Nov-15 22:26N 48°23' W 004°27'0 0.0
2017-Nov-15 21:59N 48°23' W 004°27'0 0.0
2017-Nov-15 21:29N 48°23' W 004°27'0 0.0
2017-Nov-15 20:59N 48°23' W 004°27'0 0.0
2017-Nov-15 20:29N 48°23' W 004°27'0 0.0
2017-Nov-15 19:59N 48°23' W 004°27'0 0.0
2017-Nov-15 19:29N 48°23' W 004°27'0 0.0
2017-Nov-15 18:59N 48°23' W 004°27'0 0.0
2017-Nov-15 18:29N 48°23' W 004°27'0 0.0
2017-Nov-15 17:59N 48°23' W 004°27'0 0.0
2017-Nov-15 17:29N 48°23' W 004°27'0 0.0
2017-Nov-15 16:59N 48°23' W 004°27'0 0.0
2017-Nov-15 16:29N 48°23' W 004°27'0 0.0
2017-Nov-15 15:59N 48°23' W 004°27'0 0.0
2017-Nov-15 15:29N 48°23' W 004°27'0 0.0
2017-Nov-15 14:59N 48°23' W 004°27'0 0.0
2017-Nov-15 14:29N 48°23' W 004°27'0 0.0
2017-Nov-15 13:59N 48°23' W 004°27'0 0.0
2017-Nov-15 13:29N 48°23' W 004°27'0 0.0
2017-Nov-15 12:59N 48°23' W 004°27'0 0.0
2017-Nov-15 12:26N 48°23' W 004°27'0 0.0
2017-Nov-15 11:59N 48°23' W 004°27'0 0.0
2017-Nov-15 11:29N 48°23' W 004°27'0 0.0
2017-Nov-15 10:59N 48°23' W 004°27'0 0.0
2017-Nov-15 10:29N 48°23' W 004°27'0 0.0
2017-Nov-15 09:59N 48°23' W 004°27'0 0.0
2017-Nov-15 09:29N 48°23' W 004°27'0 0.0
2017-Nov-15 08:59N 48°23' W 004°27'0 0.0
2017-Nov-15 08:29N 48°23' W 004°27'0 0.0
2017-Nov-15 07:59N 48°23' W 004°27'0 0.0
2017-Nov-15 07:29N 48°23' W 004°27'0 0.0
2017-Nov-15 06:59N 48°23' W 004°27'0 0.0
2017-Nov-15 06:29N 48°23' W 004°27'0 0.0
2017-Nov-15 05:59N 48°23' W 004°27'0 0.0
2017-Nov-15 05:29N 48°23' W 004°27'0 0.0
2017-Nov-15 04:59N 48°23' W 004°27'0 0.0
2017-Nov-15 04:29N 48°23' W 004°27'0 0.0
2017-Nov-15 03:59N 48°23' W 004°27'0 0.0
2017-Nov-15 03:29N 48°23' W 004°27'0 0.0
2017-Nov-15 02:59N 48°23' W 004°27'0 0.0
2017-Nov-15 02:29N 48°23' W 004°27'0 0.0
2017-Nov-15 01:59N 48°23' W 004°27'0 0.0
2017-Nov-15 01:29N 48°23' W 004°27'0 0.0
2017-Nov-15 00:59N 48°23' W 004°27'0 0.0
2017-Nov-15 00:29N 48°23' W 004°27'0 0.0
2017-Nov-14 23:59N 48°23' W 004°27'0 0.0
2017-Nov-14 23:29N 48°23' W 004°27'0 0.0
2017-Nov-14 22:59N 48°23' W 004°27'0 0.0
2017-Nov-14 22:29N 48°23' W 004°27'0 0.0
2017-Nov-14 21:59N 48°23' W 004°27'0 0.0
2017-Nov-14 21:29N 48°23' W 004°27'0 0.0
2017-Nov-14 20:59N 48°23' W 004°27'0 0.0
2017-Nov-14 20:29N 48°23' W 004°27'0 0.0
2017-Nov-14 19:59N 48°23' W 004°27'0 0.0
2017-Nov-14 19:29N 48°23' W 004°27'0 0.0
2017-Nov-14 18:59N 48°23' W 004°27'0 0.0
2017-Nov-14 18:29N 48°23' W 004°27'0 0.0
2017-Nov-14 17:59N 48°23' W 004°27'0 0.0
2017-Nov-14 17:29N 48°23' W 004°27'0 0.0
2017-Nov-14 16:59N 48°23' W 004°27'0 0.0
2017-Nov-14 16:29N 48°23' W 004°27'0 0.0
2017-Nov-14 15:59N 48°23' W 004°27'0 0.0
2017-Nov-14 15:29N 48°23' W 004°27'0 0.0
2017-Nov-14 14:59N 48°23' W 004°27'0 0.0
2017-Nov-14 14:29N 48°23' W 004°27'0 0.0
2017-Nov-14 13:59N 48°23' W 004°27'0 0.0
2017-Nov-14 13:29N 48°23' W 004°27'0 0.0
2017-Nov-14 12:59N 48°23' W 004°27'0 0.0
2017-Nov-14 12:29N 48°23' W 004°27'0 0.0
2017-Nov-14 11:59N 48°23' W 004°27'0 0.0
2017-Nov-14 11:29N 48°23' W 004°27'0 0.0
2017-Nov-14 10:59N 48°23' W 004°27'0 0.0
2017-Nov-14 10:29N 48°23' W 004°27'0 0.0
2017-Nov-14 09:59N 48°23' W 004°27'0 0.0
2017-Nov-14 09:29N 48°23' W 004°27'0 0.0
2017-Nov-14 08:59N 48°23' W 004°27'0 0.0
2017-Nov-14 08:29N 48°23' W 004°27'0 0.0
2017-Nov-14 07:59N 48°23' W 004°27'0 0.0
2017-Nov-14 07:29N 48°23' W 004°27'0 0.0
2017-Nov-14 06:59N 48°23' W 004°27'0 0.0
2017-Nov-14 06:29N 48°23' W 004°27'0 0.0
2017-Nov-14 05:59N 48°23' W 004°27'0 0.0
2017-Nov-14 05:29N 48°23' W 004°27'0 0.0
2017-Nov-14 04:59N 48°23' W 004°27'0 0.0
2017-Nov-14 04:29N 48°23' W 004°27'0 0.0
2017-Nov-14 03:59N 48°23' W 004°27'0 0.0
2017-Nov-14 03:29N 48°23' W 004°27'0 0.0
2017-Nov-14 02:59N 48°23' W 004°27'0 0.0
2017-Nov-14 02:29N 48°23' W 004°27'0 0.0
2017-Nov-14 01:59N 48°23' W 004°27'0 0.0
2017-Nov-14 01:29N 48°23' W 004°27'0 0.0
2017-Nov-14 00:59N 48°23' W 004°27'0 0.0
2017-Nov-14 00:29N 48°23' W 004°27'0 0.0
2017-Nov-13 23:59N 48°23' W 004°27'0 0.0
2017-Nov-13 23:29N 48°23' W 004°27'0 0.0
2017-Nov-13 22:59N 48°23' W 004°27'0 0.0
2017-Nov-13 22:29N 48°23' W 004°27'0 0.0
2017-Nov-13 21:59N 48°23' W 004°27'0 0.0
2017-Nov-13 01:59N 48°23' W 004°27'0 0.0
2017-Nov-13 01:29N 48°23' W 004°27'0 0.0
2017-Nov-13 00:59N 48°23' W 004°27'0 0.0
2017-Nov-13 00:29N 48°23' W 004°27'0 0.0
2017-Nov-12 23:59N 48°23' W 004°27'0 0.0
2017-Nov-12 23:29N 48°23' W 004°27'0 0.0
2017-Nov-12 22:59N 48°23' W 004°27'0 0.0
2017-Nov-12 22:29N 48°23' W 004°27'0 0.0
2017-Nov-12 21:59N 48°23' W 004°27'0 0.0
2017-Nov-12 21:29N 48°23' W 004°27'0 0.0
2017-Nov-12 20:59N 48°23' W 004°27'0 0.0
2017-Nov-12 20:29N 48°23' W 004°27'0 0.0
2017-Nov-12 19:59N 48°23' W 004°27'0 0.0
2017-Nov-12 19:29N 48°23' W 004°27'0 0.0
2017-Nov-12 18:59N 48°23' W 004°27'0 0.0
2017-Nov-12 18:29N 48°23' W 004°27'0 0.0
2017-Nov-12 17:59N 48°23' W 004°27'0 0.0
2017-Nov-12 17:29N 48°23' W 004°27'0 0.0
2017-Nov-12 16:59N 48°23' W 004°27'0 0.0
2017-Nov-12 16:29N 48°23' W 004°27'0 0.0
2017-Nov-12 15:59N 48°23' W 004°27'0 0.0
2017-Nov-12 15:29N 48°23' W 004°27'0 0.0
2017-Nov-12 14:59N 48°23' W 004°27'0 0.0
2017-Nov-12 14:29N 48°23' W 004°27'0 0.0
2017-Nov-12 13:59N 48°23' W 004°27'0 0.0
2017-Nov-12 13:29N 48°23' W 004°27'0 0.0
2017-Nov-12 12:59N 48°23' W 004°27'0 0.0
2017-Nov-12 12:29N 48°23' W 004°27'0 0.0
2017-Nov-12 11:59N 48°23' W 004°27'0 0.0
2017-Nov-12 11:29N 48°23' W 004°27'0 0.0
2017-Nov-12 10:59N 48°23' W 004°27'0 0.0
2017-Nov-12 10:29N 48°23' W 004°27'0 0.0
2017-Nov-12 09:59N 48°23' W 004°27'0 0.0
2017-Nov-12 09:29N 48°23' W 004°27'0 0.0
2017-Nov-12 08:59N 48°23' W 004°27'0 0.0
2017-Nov-12 08:29N 48°23' W 004°27'0 0.0
2017-Nov-12 07:59N 48°23' W 004°27'0 0.0
2017-Nov-12 07:29N 48°23' W 004°27'0 0.0
2017-Nov-12 06:59N 48°23' W 004°27'0 0.0
2017-Nov-12 06:29N 48°23' W 004°27'0 0.0
2017-Nov-12 05:59N 48°23' W 004°27'0 0.0
2017-Nov-12 05:29N 48°23' W 004°27'0 0.0
2017-Nov-12 04:59N 48°23' W 004°27'0 0.0
2017-Nov-12 04:29N 48°23' W 004°27'0 0.0
2017-Nov-12 03:59N 48°23' W 004°27'0 0.0
2017-Nov-12 03:29N 48°23' W 004°27'0 0.0
2017-Nov-12 02:59N 48°23' W 004°27'0 0.0
2017-Nov-12 02:29N 48°23' W 004°27'0 0.0
2017-Nov-12 01:59N 48°23' W 004°27'0 0.0
2017-Nov-12 01:29N 48°23' W 004°27'0 0.0
2017-Nov-12 00:59N 48°23' W 004°27'0 0.0
2017-Nov-12 00:29N 48°23' W 004°27'0 0.0
2017-Nov-11 23:59N 48°23' W 004°27'0 0.0
2017-Nov-11 23:29N 48°23' W 004°27'0 0.0
2017-Nov-11 22:59N 48°23' W 004°27'0 0.0
2017-Nov-11 22:29N 48°23' W 004°27'0 0.0
2017-Nov-11 21:59N 48°23' W 004°27'0 0.0
2017-Nov-11 21:29N 48°23' W 004°27'0 0.0
2017-Nov-11 20:59N 48°23' W 004°27'0 0.0
2017-Nov-11 20:29N 48°23' W 004°27'0 0.0
2017-Nov-11 19:59N 48°23' W 004°27'0 0.0
2017-Nov-11 19:29N 48°23' W 004°27'0 0.0
2017-Nov-11 18:59N 48°23' W 004°27'0 0.0
2017-Nov-11 18:29N 48°23' W 004°27'0 0.0
2017-Nov-11 17:59N 48°23' W 004°27'0 0.0
2017-Nov-11 17:29N 48°23' W 004°27'0 0.0
2017-Nov-11 16:59N 48°23' W 004°27'0 0.0
2017-Nov-11 16:29N 48°23' W 004°27'0 0.0
2017-Nov-11 15:59N 48°23' W 004°27'0 0.0
2017-Nov-11 15:29N 48°23' W 004°27'0 0.0
2017-Nov-11 14:59N 48°23' W 004°27'0 0.0
2017-Nov-11 14:29N 48°23' W 004°27'0 0.0
2017-Nov-11 13:59N 48°23' W 004°27'0 0.0
2017-Nov-11 13:29N 48°23' W 004°27'0 0.0
2017-Nov-11 12:59N 48°23' W 004°27'0 0.0
2017-Nov-11 12:29N 48°23' W 004°27'0 0.0
2017-Nov-11 11:59N 48°23' W 004°27'0 0.0
2017-Nov-11 11:29N 48°23' W 004°27'0 0.0
2017-Nov-11 10:59N 48°23' W 004°27'0 0.0
2017-Nov-11 10:29N 48°23' W 004°27'0 0.0
2017-Nov-11 09:59N 48°23' W 004°27'0 0.0
2017-Nov-11 09:29N 48°23' W 004°27'0 0.0
2017-Nov-11 08:59N 48°23' W 004°27'0 0.0
2017-Nov-11 08:29N 48°23' W 004°27'0 0.0
2017-Nov-11 07:59N 48°23' W 004°27'0 0.0
2017-Nov-11 07:29N 48°23' W 004°27'0 0.0
2017-Nov-11 06:59N 48°23' W 004°27'0 0.0
2017-Nov-11 06:29N 48°23' W 004°27'0 0.0
2017-Nov-11 05:59N 48°23' W 004°27'0 0.0
2017-Nov-11 05:29N 48°23' W 004°27'0 0.0
2017-Nov-11 04:59N 48°23' W 004°27'0 0.0
2017-Nov-11 04:29N 48°23' W 004°27'0 0.0
2017-Nov-11 03:59N 48°23' W 004°27'0 0.0
2017-Nov-11 03:29N 48°23' W 004°27'0 0.0
2017-Nov-11 02:59N 48°23' W 004°27'0 0.0
2017-Nov-11 02:29N 48°23' W 004°27'0 0.0
2017-Nov-11 01:59N 48°23' W 004°27'0 0.0
2017-Nov-11 01:29N 48°23' W 004°27'0 0.0
2017-Nov-11 00:59N 48°23' W 004°27'0 0.0
2017-Nov-11 00:29N 48°23' W 004°27'0 0.0
2017-Nov-10 23:59N 48°23' W 004°27'0 0.0
2017-Nov-10 23:29N 48°23' W 004°27'0 0.0
2017-Nov-10 22:59N 48°23' W 004°27'0 0.0
2017-Nov-10 22:29N 48°23' W 004°27'0 0.0
2017-Nov-10 21:59N 48°23' W 004°27'0 0.0
2017-Nov-10 21:29N 48°23' W 004°27'0 0.0
2017-Nov-10 21:01N 48°23' W 004°27'0 0.3
2017-Nov-10 20:31N 48°23' W 004°27'0 0.8
2017-Nov-10 20:00N 48°23' W 004°28'1 2.4
2017-Nov-10 19:30N 48°22' W 004°29'2 4.9
2017-Nov-10 19:00N 48°21' W 004°32'5 9.3
2017-Nov-10 18:30N 48°19' W 004°39'4 7.3
2017-Nov-10 18:00N 48°17' W 004°44'4 7.3
2017-Nov-10 17:31N 48°16' W 004°49'611.0
2017-Nov-10 17:01N 48°16' W 004°57'611.8
2017-Nov-10 16:31N 48°17' W 005°06'611.7
2017-Nov-10 16:00N 48°19' W 005°14'611.5
2017-Nov-10 15:30N 48°20' W 005°23'611.3
2017-Nov-10 15:00N 48°22' W 005°31'611.1
2017-Nov-10 14:30N 48°24' W 005°39'511.2
2017-Nov-10 14:00N 48°26' W 005°46'611.5
2017-Nov-10 13:30N 48°30' W 005°53'1511.6
2017-Nov-10 12:15N 48°39' W 006°10'21 7.5
2017-Nov-10 09:28N 48°42' W 006°41'1011.0
2017-Nov-10 08:32N 48°35' W 006°52'18 3.8
2017-Nov-10 03:49N 48°44' W 006°29'  
Track history (hours):
 
Tides and Currents Weather Stations Pressure Air Temp Water Temp Dewpoint Dewpoint Depression Visibility Wind Speed Wind Dir Waves Ship Positions

Eagle Virginia

Last reported at 2017-Nov-20 00:29 UTC. Time now 2017-Nov-21 10:22 UTC.
Position N 47°48' W 005°49'.

Length 333 m; draft 8.5 m.

Type: Tanker. MMSI: 564422000.

Date/timePositionNaut miles runAvg speedWind from/ knotsBaromVisibWave heightAir tempDewpointWater temp
2017-Nov-20 00:29N 47°48' W 005°49'711.0
2017-Nov-19 23:53N 47°52' W 005°41'511.3
2017-Nov-19 23:27N 47°54' W 005°35'511.5
2017-Nov-19 23:00N 47°57' W 005°29'611.6
2017-Nov-19 22:30N 48°01' W 005°22'4 8.2
2017-Nov-19 21:58N 48°03' W 005°17'4 8.5
2017-Nov-19 21:30N 48°06' W 005°12'4 8.2
2017-Nov-19 21:00N 48°08' W 005°07'4 7.6
2017-Nov-19 20:31N 48°09' W 005°01'2 3.2
2017-Nov-19 20:01N 48°10' W 004°60'1 1.5
2017-Nov-19 19:30N 48°11' W 004°60'1 1.7
2017-Nov-19 19:01N 48°12' W 004°59'1 3.0
2017-Nov-19 18:31N 48°13' W 004°58'3 6.7
2017-Nov-19 18:00N 48°15' W 004°54'1 2.6
2017-Nov-19 17:30N 48°16' W 004°52'1 1.3
2017-Nov-19 17:01N 48°16' W 004°52'3 6.7
2017-Nov-19 16:30N 48°17' W 004°47'1 1.2
2017-Nov-19 16:00N 48°17' W 004°46'2 4.5
2017-Nov-19 15:30N 48°18' W 004°43'3 6.9
2017-Nov-19 15:00N 48°19' W 004°38'3 5.7
2017-Nov-19 14:30N 48°21' W 004°34'2 4.3
2017-Nov-19 14:00N 48°21' W 004°31'2 4.8
2017-Nov-19 13:30N 48°22' W 004°28'1 2.2
2017-Nov-19 12:59N 48°23' W 004°27'0 0.0
2017-Nov-19 12:29N 48°23' W 004°27'0 0.0
2017-Nov-19 11:59N 48°23' W 004°27'0 0.0
2017-Nov-19 11:29N 48°23' W 004°27'0 0.0
2017-Nov-19 10:59N 48°23' W 004°27'0 0.0
2017-Nov-19 10:29N 48°23' W 004°27'0 0.0
2017-Nov-19 09:59N 48°23' W 004°27'0 0.0
2017-Nov-19 09:29N 48°23' W 004°27'0 0.0
2017-Nov-19 08:59N 48°23' W 004°27'0 0.0
2017-Nov-19 08:29N 48°23' W 004°27'0 0.0
2017-Nov-19 07:56N 48°23' W 004°27'0 0.0
2017-Nov-19 07:29N 48°23' W 004°27'0 0.0
2017-Nov-19 06:59N 48°23' W 004°27'0 0.0
2017-Nov-19 06:29N 48°23' W 004°27'0 0.0
2017-Nov-19 05:59N 48°23' W 004°27'0 0.0
2017-Nov-19 05:29N 48°23' W 004°27'0 0.0
2017-Nov-19 04:59N 48°23' W 004°27'0 0.0
2017-Nov-19 04:29N 48°23' W 004°27'0 0.0
2017-Nov-19 03:59N 48°23' W 004°27'0 0.0
2017-Nov-19 03:29N 48°23' W 004°27'0 0.0
2017-Nov-19 02:59N 48°23' W 004°27'0 0.0
2017-Nov-19 02:29N 48°23' W 004°27'0 0.0
2017-Nov-19 01:59N 48°23' W 004°27'0 0.0
2017-Nov-19 01:29N 48°23' W 004°27'0 0.0
2017-Nov-19 00:59N 48°23' W 004°27'0 0.0
2017-Nov-19 00:29N 48°23' W 004°27'0 0.0
2017-Nov-18 23:59N 48°23' W 004°27'0 0.0
2017-Nov-18 23:29N 48°23' W 004°27'0 0.0
2017-Nov-18 22:56N 48°23' W 004°27'0 0.0
2017-Nov-18 22:29N 48°23' W 004°27'0 0.0
2017-Nov-18 21:59N 48°23' W 004°27'0 0.0
2017-Nov-18 21:29N 48°23' W 004°27'0 0.0
2017-Nov-18 20:59N 48°23' W 004°27'0 0.0
2017-Nov-18 20:29N 48°23' W 004°27'0 0.0
2017-Nov-18 19:59N 48°23' W 004°27'0 0.0
2017-Nov-18 19:29N 48°23' W 004°27'0 0.0
2017-Nov-18 18:59N 48°23' W 004°27'0 0.0
2017-Nov-18 18:29N 48°23' W 004°27'0 0.0
2017-Nov-18 17:59N 48°23' W 004°27'0 0.0
2017-Nov-18 17:29N 48°23' W 004°27'0 0.0
2017-Nov-18 16:59N 48°23' W 004°27'0 0.0
2017-Nov-18 16:29N 48°23' W 004°27'0 0.0
2017-Nov-18 15:59N 48°23' W 004°27'0 0.0
2017-Nov-18 15:26N 48°23' W 004°27'0 0.0
2017-Nov-18 14:59N 48°23' W 004°27'0 0.0
2017-Nov-18 14:29N 48°23' W 004°27'0 0.0
2017-Nov-18 13:59N 48°23' W 004°27'0 0.0
2017-Nov-18 13:29N 48°23' W 004°27'0 0.0
2017-Nov-18 12:59N 48°23' W 004°27'0 0.0
2017-Nov-18 12:29N 48°23' W 004°27'0 0.0
2017-Nov-18 11:59N 48°23' W 004°27'0 0.0
2017-Nov-18 11:26N 48°23' W 004°27'0 0.0
2017-Nov-18 10:59N 48°23' W 004°27'0 0.0
2017-Nov-18 10:29N 48°23' W 004°27'0 0.0
2017-Nov-18 09:59N 48°23' W 004°27'0 0.0
2017-Nov-18 09:29N 48°23' W 004°27'0 0.0
2017-Nov-18 08:59N 48°23' W 004°27'0 0.0
2017-Nov-18 08:29N 48°23' W 004°27'0 0.0
2017-Nov-18 07:59N 48°23' W 004°27'0 0.0
2017-Nov-18 07:29N 48°23' W 004°27'0 0.0
2017-Nov-18 06:59N 48°23' W 004°27'0 0.0
2017-Nov-18 06:29N 48°23' W 004°27'0 0.0
2017-Nov-18 05:59N 48°23' W 004°27'0 0.0
2017-Nov-18 05:29N 48°23' W 004°27'0 0.0
2017-Nov-18 04:59N 48°23' W 004°27'0 0.0
2017-Nov-18 04:29N 48°23' W 004°27'0 0.0
2017-Nov-18 03:59N 48°23' W 004°27'0 0.0
2017-Nov-18 03:29N 48°23' W 004°27'0 0.0
2017-Nov-18 02:59N 48°23' W 004°27'0 0.0
2017-Nov-18 02:29N 48°23' W 004°27'0 0.0
2017-Nov-18 01:59N 48°23' W 004°27'0 0.0
2017-Nov-18 01:29N 48°23' W 004°27'0 0.0
2017-Nov-18 00:59N 48°23' W 004°27'0 0.0
2017-Nov-18 00:29N 48°23' W 004°27'0 0.0
2017-Nov-17 23:59N 48°23' W 004°27'0 0.0
2017-Nov-17 23:29N 48°23' W 004°27'0 0.0
2017-Nov-17 22:59N 48°23' W 004°27'0 0.0
2017-Nov-17 22:29N 48°23' W 004°27'0 0.0
2017-Nov-17 21:59N 48°23' W 004°27'0 0.0
2017-Nov-17 21:29N 48°23' W 004°27'0 0.0
2017-Nov-17 20:59N 48°23' W 004°27'0 0.0
2017-Nov-17 20:29N 48°23' W 004°27'0 0.0
2017-Nov-17 19:59N 48°23' W 004°27'0 0.0
2017-Nov-17 19:29N 48°23' W 004°27'0 0.0
2017-Nov-17 18:59N 48°23' W 004°27'0 0.0
2017-Nov-17 18:29N 48°23' W 004°27'0 0.0
2017-Nov-17 17:59N 48°23' W 004°27'0 0.0
2017-Nov-17 17:29N 48°23' W 004°27'0 0.0
2017-Nov-17 16:59N 48°23' W 004°27'0 0.0
2017-Nov-17 16:29N 48°23' W 004°27'0 0.0
2017-Nov-17 15:59N 48°23' W 004°27'0 0.0
2017-Nov-17 15:29N 48°23' W 004°27'0 0.0
2017-Nov-17 14:59N 48°23' W 004°27'0 0.0
2017-Nov-17 14:29N 48°23' W 004°27'0 0.0
2017-Nov-17 13:59N 48°23' W 004°27'0 0.0
2017-Nov-17 13:29N 48°23' W 004°27'0 0.0
2017-Nov-17 12:59N 48°23' W 004°27'0 0.0
2017-Nov-17 12:29N 48°23' W 004°27'0 0.0
2017-Nov-17 11:59N 48°23' W 004°27'0 0.0
2017-Nov-17 11:29N 48°23' W 004°27'0 0.0
2017-Nov-17 10:59N 48°23' W 004°27'0 0.0
2017-Nov-17 10:29N 48°23' W 004°27'0 0.0
2017-Nov-17 09:59N 48°23' W 004°27'0 0.0
2017-Nov-17 09:29N 48°23' W 004°27'0 0.0
2017-Nov-17 08:59N 48°23' W 004°27'0 0.0
2017-Nov-17 08:29N 48°23' W 004°27'0 0.0
2017-Nov-17 07:59N 48°23' W 004°27'0 0.0
2017-Nov-17 07:29N 48°23' W 004°27'0 0.0
2017-Nov-17 06:59N 48°23' W 004°27'0 0.0
2017-Nov-17 06:29N 48°23' W 004°27'0 0.0
2017-Nov-17 05:59N 48°23' W 004°27'0 0.0
2017-Nov-17 05:29N 48°23' W 004°27'0 0.0
2017-Nov-17 04:59N 48°23' W 004°27'0 0.0
2017-Nov-17 04:29N 48°23' W 004°27'0 0.0
2017-Nov-17 03:59N 48°23' W 004°27'0 0.0
2017-Nov-17 03:29N 48°23' W 004°27'0 0.0
2017-Nov-17 02:59N 48°23' W 004°27'0 0.0
2017-Nov-17 02:29N 48°23' W 004°27'0 0.0
2017-Nov-17 01:59N 48°23' W 004°27'0 0.0
2017-Nov-17 01:29N 48°23' W 004°27'0 0.0
2017-Nov-17 00:59N 48°23' W 004°27'0 0.0
2017-Nov-17 00:29N 48°23' W 004°27'0 0.0
2017-Nov-16 23:59N 48°23' W 004°27'0 0.0
2017-Nov-16 23:29N 48°23' W 004°27'0 0.0
2017-Nov-16 22:59N 48°23' W 004°27'0 0.0
2017-Nov-16 22:29N 48°23' W 004°27'0 0.0
2017-Nov-16 21:59N 48°23' W 004°27'0 0.0
2017-Nov-16 21:29N 48°23' W 004°27'0 0.0
2017-Nov-16 20:59N 48°23' W 004°27'0 0.0
2017-Nov-16 20:29N 48°23' W 004°27'0 0.0
2017-Nov-16 19:59N 48°23' W 004°27'0 0.0
2017-Nov-16 19:29N 48°23' W 004°27'0 0.0
2017-Nov-16 18:59N 48°23' W 004°27'0 0.0
2017-Nov-16 18:29N 48°23' W 004°27'0 0.0
2017-Nov-16 17:59N 48°23' W 004°27'0 0.0
2017-Nov-16 17:29N 48°23' W 004°27'0 0.0
2017-Nov-16 16:59N 48°23' W 004°27'0 0.0
2017-Nov-16 16:29N 48°23' W 004°27'0 0.0
2017-Nov-16 15:59N 48°23' W 004°27'0 0.0
2017-Nov-16 15:29N 48°23' W 004°27'0 0.0
2017-Nov-16 14:59N 48°23' W 004°27'0 0.0
2017-Nov-16 14:29N 48°23' W 004°27'0 0.0
2017-Nov-16 13:59N 48°23' W 004°27'0 0.0
2017-Nov-16 13:29N 48°23' W 004°27'0 0.0
2017-Nov-16 12:59N 48°23' W 004°27'0 0.0
2017-Nov-16 12:29N 48°23' W 004°27'0 0.0
2017-Nov-16 11:59N 48°23' W 004°27'0 0.0
2017-Nov-16 11:29N 48°23' W 004°27'0 0.0
2017-Nov-16 10:59N 48°23' W 004°27'0 0.0
2017-Nov-16 10:29N 48°23' W 004°27'0 0.0
2017-Nov-16 09:56N 48°23' W 004°27'0 0.0
2017-Nov-16 09:29N 48°23' W 004°27'0 0.0
2017-Nov-16 08:59N 48°23' W 004°27'0 0.0
2017-Nov-16 08:29N 48°23' W 004°27'0 0.0
2017-Nov-16 07:59N 48°23' W 004°27'0 0.0
2017-Nov-16 07:29N 48°23' W 004°27'0 0.0
2017-Nov-16 06:59N 48°23' W 004°27'0 0.0
2017-Nov-16 06:29N 48°23' W 004°27'0 0.0
2017-Nov-16 05:59N 48°23' W 004°27'0 0.0
2017-Nov-16 05:29N 48°23' W 004°27'0 0.0
2017-Nov-16 04:59N 48°23' W 004°27'0 0.0
2017-Nov-16 04:29N 48°23' W 004°27'0 0.0
2017-Nov-16 03:59N 48°23' W 004°27'0 0.0
2017-Nov-16 03:29N 48°23' W 004°27'0 0.0
2017-Nov-16 02:59N 48°23' W 004°27'0 0.0
2017-Nov-16 02:29N 48°23' W 004°27'0 0.0
2017-Nov-16 01:59N 48°23' W 004°27'0 0.0
2017-Nov-16 01:29N 48°23' W 004°27'0 0.0
2017-Nov-16 00:59N 48°23' W 004°27'0 0.0
2017-Nov-16 00:29N 48°23' W 004°27'0 0.0
2017-Nov-15 23:59N 48°23' W 004°27'0 0.0
2017-Nov-15 23:29N 48°23' W 004°27'0 0.0
2017-Nov-15 22:59N 48°23' W 004°27'0 0.0
2017-Nov-15 22:26N 48°23' W 004°27'0 0.0
2017-Nov-15 21:59N 48°23' W 004°27'0 0.0
2017-Nov-15 21:29N 48°23' W 004°27'0 0.0
2017-Nov-15 20:59N 48°23' W 004°27'0 0.0
2017-Nov-15 20:29N 48°23' W 004°27'0 0.0
2017-Nov-15 19:59N 48°23' W 004°27'0 0.0
2017-Nov-15 19:29N 48°23' W 004°27'0 0.0
2017-Nov-15 18:59N 48°23' W 004°27'0 0.0
2017-Nov-15 18:29N 48°23' W 004°27'0 0.0
2017-Nov-15 17:59N 48°23' W 004°27'0 0.0
2017-Nov-15 17:29N 48°23' W 004°27'0 0.0
2017-Nov-15 16:59N 48°23' W 004°27'0 0.0
2017-Nov-15 16:29N 48°23' W 004°27'0 0.0
2017-Nov-15 15:59N 48°23' W 004°27'0 0.0
2017-Nov-15 15:29N 48°23' W 004°27'0 0.0
2017-Nov-15 14:59N 48°23' W 004°27'0 0.0
2017-Nov-15 14:29N 48°23' W 004°27'0 0.0
2017-Nov-15 13:59N 48°23' W 004°27'0 0.0
2017-Nov-15 13:29N 48°23' W 004°27'0 0.0
2017-Nov-15 12:59N 48°23' W 004°27'0 0.0
2017-Nov-15 12:26N 48°23' W 004°27'0 0.0
2017-Nov-15 11:59N 48°23' W 004°27'0 0.0
2017-Nov-15 11:29N 48°23' W 004°27'0 0.0
2017-Nov-15 10:59N 48°23' W 004°27'0 0.0
2017-Nov-15 10:29N 48°23' W 004°27'0 0.0
2017-Nov-15 09:59N 48°23' W 004°27'0 0.0
2017-Nov-15 09:29N 48°23' W 004°27'0 0.0
2017-Nov-15 08:59N 48°23' W 004°27'0 0.0
2017-Nov-15 08:29N 48°23' W 004°27'0 0.0
2017-Nov-15 07:59N 48°23' W 004°27'0 0.0
2017-Nov-15 07:29N 48°23' W 004°27'0 0.0
2017-Nov-15 06:59N 48°23' W 004°27'0 0.0
2017-Nov-15 06:29N 48°23' W 004°27'0 0.0
2017-Nov-15 05:59N 48°23' W 004°27'0 0.0
2017-Nov-15 05:29N 48°23' W 004°27'0 0.0
2017-Nov-15 04:59N 48°23' W 004°27'0 0.0
2017-Nov-15 04:29N 48°23' W 004°27'0 0.0
2017-Nov-15 03:59N 48°23' W 004°27'0 0.0
2017-Nov-15 03:29N 48°23' W 004°27'0 0.0
2017-Nov-15 02:59N 48°23' W 004°27'0 0.0
2017-Nov-15 02:29N 48°23' W 004°27'0 0.0
2017-Nov-15 01:59N 48°23' W 004°27'0 0.0
2017-Nov-15 01:29N 48°23' W 004°27'0 0.0
2017-Nov-15 00:59N 48°23' W 004°27'0 0.0
2017-Nov-15 00:29N 48°23' W 004°27'0 0.0
2017-Nov-14 23:59N 48°23' W 004°27'0 0.0
2017-Nov-14 23:29N 48°23' W 004°27'0 0.0
2017-Nov-14 22:59N 48°23' W 004°27'0 0.0
2017-Nov-14 22:29N 48°23' W 004°27'0 0.0
2017-Nov-14 21:59N 48°23' W 004°27'0 0.0
2017-Nov-14 21:29N 48°23' W 004°27'0 0.0
2017-Nov-14 20:59N 48°23' W 004°27'0 0.0
2017-Nov-14 20:29N 48°23' W 004°27'0 0.0
2017-Nov-14 19:59N 48°23' W 004°27'0 0.0
2017-Nov-14 19:29N 48°23' W 004°27'0 0.0
2017-Nov-14 18:59N 48°23' W 004°27'0 0.0
2017-Nov-14 18:29N 48°23' W 004°27'0 0.0
2017-Nov-14 17:59N 48°23' W 004°27'0 0.0
2017-Nov-14 17:29N 48°23' W 004°27'0 0.0
2017-Nov-14 16:59N 48°23' W 004°27'0 0.0
2017-Nov-14 16:29N 48°23' W 004°27'0 0.0
2017-Nov-14 15:59N 48°23' W 004°27'0 0.0
2017-Nov-14 15:29N 48°23' W 004°27'0 0.0
2017-Nov-14 14:59N 48°23' W 004°27'0 0.0
2017-Nov-14 14:29N 48°23' W 004°27'0 0.0
2017-Nov-14 13:59N 48°23' W 004°27'0 0.0
2017-Nov-14 13:29N 48°23' W 004°27'0 0.0
2017-Nov-14 12:59N 48°23' W 004°27'0 0.0
2017-Nov-14 12:29N 48°23' W 004°27'0 0.0
2017-Nov-14 11:59N 48°23' W 004°27'0 0.0
2017-Nov-14 11:29N 48°23' W 004°27'0 0.0
2017-Nov-14 10:59N 48°23' W 004°27'0 0.0
2017-Nov-14 10:29N 48°23' W 004°27'0 0.0
2017-Nov-14 09:59N 48°23' W 004°27'0 0.0
2017-Nov-14 09:29N 48°23' W 004°27'0 0.0
2017-Nov-14 08:59N 48°23' W 004°27'0 0.0
2017-Nov-14 08:29N 48°23' W 004°27'0 0.0
2017-Nov-14 07:59N 48°23' W 004°27'0 0.0
2017-Nov-14 07:29N 48°23' W 004°27'0 0.0
2017-Nov-14 06:59N 48°23' W 004°27'0 0.0
2017-Nov-14 06:29N 48°23' W 004°27'0 0.0
2017-Nov-14 05:59N 48°23' W 004°27'0 0.0
2017-Nov-14 05:29N 48°23' W 004°27'0 0.0
2017-Nov-14 04:59N 48°23' W 004°27'0 0.0
2017-Nov-14 04:29N 48°23' W 004°27'0 0.0
2017-Nov-14 03:59N 48°23' W 004°27'0 0.0
2017-Nov-14 03:29N 48°23' W 004°27'0 0.0
2017-Nov-14 02:59N 48°23' W 004°27'0 0.0
2017-Nov-14 02:29N 48°23' W 004°27'0 0.0
2017-Nov-14 01:59N 48°23' W 004°27'0 0.0
2017-Nov-14 01:29N 48°23' W 004°27'0 0.0
2017-Nov-14 00:59N 48°23' W 004°27'0 0.0
2017-Nov-14 00:29N 48°23' W 004°27'0 0.0
2017-Nov-13 23:59N 48°23' W 004°27'0 0.0
2017-Nov-13 23:29N 48°23' W 004°27'0 0.0
2017-Nov-13 22:59N 48°23' W 004°27'0 0.0
2017-Nov-13 22:29N 48°23' W 004°27'0 0.0
2017-Nov-13 21:59N 48°23' W 004°27'0 0.0
2017-Nov-13 01:59N 48°23' W 004°27'0 0.0
2017-Nov-13 01:29N 48°23' W 004°27'0 0.0
2017-Nov-13 00:59N 48°23' W 004°27'0 0.0
2017-Nov-13 00:29N 48°23' W 004°27'0 0.0
2017-Nov-12 23:59N 48°23' W 004°27'0 0.0
2017-Nov-12 23:29N 48°23' W 004°27'0 0.0
2017-Nov-12 22:59N 48°23' W 004°27'0 0.0
2017-Nov-12 22:29N 48°23' W 004°27'0 0.0
2017-Nov-12 21:59N 48°23' W 004°27'0 0.0
2017-Nov-12 21:29N 48°23' W 004°27'0 0.0
2017-Nov-12 20:59N 48°23' W 004°27'0 0.0
2017-Nov-12 20:29N 48°23' W 004°27'0 0.0
2017-Nov-12 19:59N 48°23' W 004°27'0 0.0
2017-Nov-12 19:29N 48°23' W 004°27'0 0.0
2017-Nov-12 18:59N 48°23' W 004°27'0 0.0
2017-Nov-12 18:29N 48°23' W 004°27'0 0.0
2017-Nov-12 17:59N 48°23' W 004°27'0 0.0
2017-Nov-12 17:29N 48°23' W 004°27'0 0.0
2017-Nov-12 16:59N 48°23' W 004°27'0 0.0
2017-Nov-12 16:29N 48°23' W 004°27'0 0.0
2017-Nov-12 15:59N 48°23' W 004°27'0 0.0
2017-Nov-12 15:29N 48°23' W 004°27'0 0.0
2017-Nov-12 14:59N 48°23' W 004°27'0 0.0
2017-Nov-12 14:29N 48°23' W 004°27'0 0.0
2017-Nov-12 13:59N 48°23' W 004°27'0 0.0
2017-Nov-12 13:29N 48°23' W 004°27'0 0.0
2017-Nov-12 12:59N 48°23' W 004°27'0 0.0
2017-Nov-12 12:29N 48°23' W 004°27'0 0.0
2017-Nov-12 11:59N 48°23' W 004°27'0 0.0
2017-Nov-12 11:29N 48°23' W 004°27'0 0.0
2017-Nov-12 10:59N 48°23' W 004°27'0 0.0
2017-Nov-12 10:29N 48°23' W 004°27'0 0.0
2017-Nov-12 09:59N 48°23' W 004°27'0 0.0
2017-Nov-12 09:29N 48°23' W 004°27'0 0.0
2017-Nov-12 08:59N 48°23' W 004°27'0 0.0
2017-Nov-12 08:29N 48°23' W 004°27'0 0.0
2017-Nov-12 07:59N 48°23' W 004°27'0 0.0
2017-Nov-12 07:29N 48°23' W 004°27'0 0.0
2017-Nov-12 06:59N 48°23' W 004°27'0 0.0
2017-Nov-12 06:29N 48°23' W 004°27'0 0.0
2017-Nov-12 05:59N 48°23' W 004°27'0 0.0
2017-Nov-12 05:29N 48°23' W 004°27'0 0.0
2017-Nov-12 04:59N 48°23' W 004°27'0 0.0
2017-Nov-12 04:29N 48°23' W 004°27'0 0.0
2017-Nov-12 03:59N 48°23' W 004°27'0 0.0
2017-Nov-12 03:29N 48°23' W 004°27'0 0.0
2017-Nov-12 02:59N 48°23' W 004°27'0 0.0
2017-Nov-12 02:29N 48°23' W 004°27'0 0.0
2017-Nov-12 01:59N 48°23' W 004°27'0 0.0
2017-Nov-12 01:29N 48°23' W 004°27'0 0.0
2017-Nov-12 00:59N 48°23' W 004°27'0 0.0
2017-Nov-12 00:29N 48°23' W 004°27'0 0.0
2017-Nov-11 23:59N 48°23' W 004°27'0 0.0
2017-Nov-11 23:29N 48°23' W 004°27'0 0.0
2017-Nov-11 22:59N 48°23' W 004°27'0 0.0
2017-Nov-11 22:29N 48°23' W 004°27'0 0.0
2017-Nov-11 21:59N 48°23' W 004°27'0 0.0
2017-Nov-11 21:29N 48°23' W 004°27'0 0.0
2017-Nov-11 20:59N 48°23' W 004°27'0 0.0
2017-Nov-11 20:29N 48°23' W 004°27'0 0.0
2017-Nov-11 19:59N 48°23' W 004°27'0 0.0
2017-Nov-11 19:29N 48°23' W 004°27'0 0.0
2017-Nov-11 18:59N 48°23' W 004°27'0 0.0
2017-Nov-11 18:29N 48°23' W 004°27'0 0.0
2017-Nov-11 17:59N 48°23' W 004°27'0 0.0
2017-Nov-11 17:29N 48°23' W 004°27'0 0.0
2017-Nov-11 16:59N 48°23' W 004°27'0 0.0
2017-Nov-11 16:29N 48°23' W 004°27'0 0.0
2017-Nov-11 15:59N 48°23' W 004°27'0 0.0
2017-Nov-11 15:29N 48°23' W 004°27'0 0.0
2017-Nov-11 14:59N 48°23' W 004°27'0 0.0
2017-Nov-11 14:29N 48°23' W 004°27'0 0.0
2017-Nov-11 13:59N 48°23' W 004°27'0 0.0
2017-Nov-11 13:29N 48°23' W 004°27'0 0.0
2017-Nov-11 12:59N 48°23' W 004°27'0 0.0
2017-Nov-11 12:29N 48°23' W 004°27'0 0.0
2017-Nov-11 11:59N 48°23' W 004°27'0 0.0
2017-Nov-11 11:29N 48°23' W 004°27'0 0.0
2017-Nov-11 10:59N 48°23' W 004°27'0 0.0
2017-Nov-11 10:29N 48°23' W 004°27'0 0.0
2017-Nov-11 09:59N 48°23' W 004°27'0 0.0
2017-Nov-11 09:29N 48°23' W 004°27'0 0.0
2017-Nov-11 08:59N 48°23' W 004°27'0 0.0
2017-Nov-11 08:29N 48°23' W 004°27'0 0.0
2017-Nov-11 07:59N 48°23' W 004°27'0 0.0
2017-Nov-11 07:29N 48°23' W 004°27'0 0.0
2017-Nov-11 06:59N 48°23' W 004°27'0 0.0
2017-Nov-11 06:29N 48°23' W 004°27'0 0.0
2017-Nov-11 05:59N 48°23' W 004°27'0 0.0
2017-Nov-11 05:29N 48°23' W 004°27'0 0.0
2017-Nov-11 04:59N 48°23' W 004°27'0 0.0
2017-Nov-11 04:29N 48°23' W 004°27'0 0.0
2017-Nov-11 03:59N 48°23' W 004°27'0 0.0
2017-Nov-11 03:29N 48°23' W 004°27'0 0.0
2017-Nov-11 02:59N 48°23' W 004°27'0 0.0
2017-Nov-11 02:29N 48°23' W 004°27'0 0.0
2017-Nov-11 01:59N 48°23' W 004°27'0 0.0
2017-Nov-11 01:29N 48°23' W 004°27'0 0.0
2017-Nov-11 00:59N 48°23' W 004°27'0 0.0
2017-Nov-11 00:29N 48°23' W 004°27'0 0.0
2017-Nov-10 23:59N 48°23' W 004°27'0 0.0
2017-Nov-10 23:29N 48°23' W 004°27'0 0.0
2017-Nov-10 22:59N 48°23' W 004°27'0 0.0
2017-Nov-10 22:29N 48°23' W 004°27'0 0.0
2017-Nov-10 21:59N 48°23' W 004°27'0 0.0
2017-Nov-10 21:29N 48°23' W 004°27'0 0.0
2017-Nov-10 21:01N 48°23' W 004°27'0 0.3
2017-Nov-10 20:31N 48°23' W 004°27'0 0.8
2017-Nov-10 20:00N 48°23' W 004°28'1 2.4
2017-Nov-10 19:30N 48°22' W 004°29'2 4.9
2017-Nov-10 19:00N 48°21' W 004°32'5 9.3
2017-Nov-10 18:30N 48°19' W 004°39'4 7.3
2017-Nov-10 18:00N 48°17' W 004°44'4 7.3
2017-Nov-10 17:31N 48°16' W 004°49'611.0
2017-Nov-10 17:01N 48°16' W 004°57'611.8
2017-Nov-10 16:31N 48°17' W 005°06'611.7
2017-Nov-10 16:00N 48°19' W 005°14'611.5
2017-Nov-10 15:30N 48°20' W 005°23'611.3
2017-Nov-10 15:00N 48°22' W 005°31'611.1
2017-Nov-10 14:30N 48°24' W 005°39'511.2
2017-Nov-10 14:00N 48°26' W 005°46'611.5
2017-Nov-10 13:30N 48°30' W 005°53'1511.6
2017-Nov-10 12:15N 48°39' W 006°10'21 7.5
2017-Nov-10 09:28N 48°42' W 006°41'1011.0
2017-Nov-10 08:32N 48°35' W 006°52'18 3.8
2017-Nov-10 03:49N 48°44' W 006°29'  

Dump ship's entire track history